Time;durP1;ratioP1;P1;durP2;ratioP2;P2;SDS_P1;SDS_P2;PMS_P1;PMS_P2;Temp;Humidity;BMP_temperature;BMP_pressure;BME280_temperature;BME280_humidity;BME280_pressure;Samples;Min_cycle;Max_cycle;Signal;HPM_P1;HPM_P2
2023/10/28 00:00:31;;;;;;;10.18;4.55;;;;;;;;;;5042672;28;20413;-61
2023/10/28 00:02:58;;;;;;;12.95;4.95;;;;;;;;;;5039957;28;20411;-62
2023/10/28 00:05:25;;;;;;;10.27;5.25;;;;;;;;;;5044698;28;20417;-61
2023/10/28 00:07:52;;;;;;;12.20;5.57;;;;;;;;;;5045556;28;20415;-62
2023/10/28 00:10:21;;;;;;;11.80;4.82;;;;;;;;;;5040120;28;20469;-62
2023/10/28 00:12:49;;;;;;;16.55;5.25;;;;;;;;;;5040014;28;20446;-62
2023/10/28 00:15:18;;;;;;;9.48;4.60;;;;;;;;;;5040048;28;20419;-62
2023/10/28 00:17:47;;;;;;;10.02;4.55;;;;;;;;;;5040090;28;20407;-61
2023/10/28 00:20:17;;;;;;;13.60;4.47;;;;;;;;;;5041037;28;20434;-62
2023/10/28 00:22:44;;;;;;;13.27;4.80;;;;;;;;;;5042765;28;20417;-62
2023/10/28 00:25:12;;;;;;;13.27;4.57;;;;;;;;;;5040711;28;20427;-61
2023/10/28 00:27:38;;;;;;;14.68;4.43;;;;;;;;;;5040750;28;20450;-60
2023/10/28 00:30:07;;;;;;;15.43;4.40;;;;;;;;;;5041761;28;20816;-62
2023/10/28 00:32:36;;;;;;;10.52;4.22;;;;;;;;;;5040352;28;20797;-62
2023/10/28 00:35:03;;;;;;;14.55;4.47;;;;;;;;;;5043418;28;20494;-62
2023/10/28 00:37:30;;;;;;;12.63;4.57;;;;;;;;;;5044230;28;20409;-62
2023/10/28 00:39:57;;;;;;;11.73;4.70;;;;;;;;;;5038614;28;20774;-62
2023/10/28 00:42:24;;;;;;;10.98;4.55;;;;;;;;;;5041374;28;20432;-62
2023/10/28 00:44:54;;;;;;;9.90;4.50;;;;;;;;;;5039690;28;20524;-61
2023/10/28 00:47:22;;;;;;;16.98;4.63;;;;;;;;;;5041173;28;20424;-61
2023/10/28 00:49:50;;;;;;;13.43;4.60;;;;;;;;;;5042201;28;20417;-61
2023/10/28 00:52:19;;;;;;;13.57;4.18;;;;;;;;;;5030724;28;20403;-62
2023/10/28 00:54:47;;;;;;;11.38;4.32;;;;;;;;;;5030754;28;20426;-62
2023/10/28 00:57:15;;;;;;;10.68;4.05;;;;;;;;;;5030563;28;20423;-60
2023/10/28 00:59:42;;;;;;;13.55;4.22;;;;;;;;;;5030645;28;20948;-62
2023/10/28 01:02:10;;;;;;;8.60;4.10;;;;;;;;;;5030367;28;20431;-62
2023/10/28 01:04:37;;;;;;;13.13;4.15;;;;;;;;;;5040343;28;20415;-62
2023/10/28 01:07:06;;;;;;;13.82;3.88;;;;;;;;;;5043496;28;20987;-62
2023/10/28 01:09:33;;;;;;;13.93;4.22;;;;;;;;;;5038836;28;21340;-62
2023/10/28 01:12:02;;;;;;;11.82;4.25;;;;;;;;;;5039149;28;20407;-62
2023/10/28 01:14:29;;;;;;;13.50;4.10;;;;;;;;;;5041205;28;20780;-61
2023/10/28 01:16:56;;;;;;;10.98;3.70;;;;;;;;;;5040922;28;20490;-61
2023/10/28 01:19:23;;;;;;;10.98;3.92;;;;;;;;;;5038883;28;20424;-62
2023/10/28 01:21:52;;;;;;;9.32;4.10;;;;;;;;;;5040930;28;20429;-62
2023/10/28 01:24:19;;;;;;;13.27;3.63;;;;;;;;;;5040783;28;20777;-62
2023/10/28 01:26:46;;;;;;;10.90;4.20;;;;;;;;;;5038865;28;20912;-61
2023/10/28 01:29:13;;;;;;;11.05;3.70;;;;;;;;;;5041331;28;20474;-62
2023/10/28 01:31:39;;;;;;;8.48;3.72;;;;;;;;;;5040646;28;20407;-62
2023/10/28 01:34:06;;;;;;;11.73;4.13;;;;;;;;;;5038850;28;20445;-61
2023/10/28 01:36:34;;;;;;;12.10;3.65;;;;;;;;;;5042803;28;20441;-62
2023/10/28 01:39:03;;;;;;;8.48;3.30;;;;;;;;;;5039896;28;20824;-62
2023/10/28 01:41:30;;;;;;;12.67;3.70;;;;;;;;;;5041881;28;20438;-61
2023/10/28 01:43:57;;;;;;;11.77;3.30;;;;;;;;;;5045369;28;20416;-62
2023/10/28 01:46:23;;;;;;;11.30;3.30;;;;;;;;;;5044575;28;20836;-62
2023/10/28 01:48:50;;;;;;;6.70;2.83;;;;;;;;;;5042885;28;20403;-62
2023/10/28 01:51:17;;;;;;;11.80;3.30;;;;;;;;;;5042673;28;20403;-62
2023/10/28 01:53:44;;;;;;;12.50;3.47;;;;;;;;;;5044154;28;20879;-62
2023/10/28 01:56:13;;;;;;;7.15;3.30;;;;;;;;;;5045358;28;20756;-62
2023/10/28 01:58:40;;;;;;;7.50;2.80;;;;;;;;;;5042804;28;20411;-62
2023/10/28 02:01:07;;;;;;;8.18;2.80;;;;;;;;;;5043872;28;20891;-62
2023/10/28 02:03:34;;;;;;;9.10;2.55;;;;;;;;;;5044910;28;20483;-62
2023/10/28 02:06:01;;;;;;;9.45;2.50;;;;;;;;;;5045275;28;20480;-62
2023/10/28 02:08:28;;;;;;;8.15;2.90;;;;;;;;;;5046080;28;20912;-62
2023/10/28 02:10:55;;;;;;;6.63;2.53;;;;;;;;;;5047901;28;20413;-61
2023/10/28 02:13:23;;;;;;;5.95;2.55;;;;;;;;;;5045858;28;20447;-62
2023/10/28 02:15:51;;;;;;;7.53;2.70;;;;;;;;;;5047984;28;20821;-62
2023/10/28 02:18:18;;;;;;;10.98;2.83;;;;;;;;;;5043214;28;20413;-62
2023/10/28 02:20:45;;;;;;;6.85;2.67;;;;;;;;;;5049160;28;20447;-62
2023/10/28 02:23:13;;;;;;;7.63;3.00;;;;;;;;;;5043968;28;20448;-62
2023/10/28 02:25:41;;;;;;;6.43;2.28;;;;;;;;;;5044655;28;20413;-62
2023/10/28 02:28:08;;;;;;;6.60;2.20;;;;;;;;;;5042009;28;20457;-62
2023/10/28 02:30:39;;;;;;;6.85;2.13;;;;;;;;;;5043754;28;20409;-60
2023/10/28 02:33:06;;;;;;;4.63;1.70;;;;;;;;;;5044175;28;20413;-61
2023/10/28 02:35:33;;;;;;;4.03;1.63;;;;;;;;;;5047530;28;20413;-60
2023/10/28 02:38:00;;;;;;;5.68;2.20;;;;;;;;;;5050172;28;20413;-62
2023/10/28 02:40:27;;;;;;;6.63;2.30;;;;;;;;;;5042435;28;20415;-61
2023/10/28 02:42:55;;;;;;;7.68;2.22;;;;;;;;;;5033238;28;20852;-61
2023/10/28 02:45:22;;;;;;;7.72;2.40;;;;;;;;;;5033132;28;20874;-61
2023/10/28 02:47:50;;;;;;;7.18;2.53;;;;;;;;;;5045371;28;20474;-62
2023/10/28 02:50:19;;;;;;;7.03;2.30;;;;;;;;;;5041086;28;20405;-60
2023/10/28 02:52:46;;;;;;;5.45;2.40;;;;;;;;;;5042571;28;20494;-60
2023/10/28 02:55:13;;;;;;;6.55;2.50;;;;;;;;;;5041766;28;20411;-62
2023/10/28 02:57:40;;;;;;;7.93;2.72;;;;;;;;;;5041548;28;20782;-62
2023/10/28 03:00:08;;;;;;;7.22;2.60;;;;;;;;;;5042929;28;20482;-62
2023/10/28 03:02:35;;;;;;;9.48;2.72;;;;;;;;;;5043895;28;20429;-61
2023/10/28 03:05:05;;;;;;;5.95;2.88;;;;;;;;;;5045500;28;20414;-62
2023/10/28 03:07:32;;;;;;;9.38;3.38;;;;;;;;;;5048924;28;20917;-61
2023/10/28 03:09:59;;;;;;;9.45;3.63;;;;;;;;;;5044582;28;20413;-62
2023/10/28 03:12:26;;;;;;;7.80;3.88;;;;;;;;;;5044017;28;20439;-62
2023/10/28 03:14:53;;;;;;;10.32;3.83;;;;;;;;;;5042734;28;21151;-62
2023/10/28 03:17:20;;;;;;;11.98;4.30;;;;;;;;;;5041121;28;20419;-62
2023/10/28 03:19:48;;;;;;;10.70;4.28;;;;;;;;;;5041476;28;20751;-62
2023/10/28 03:22:16;;;;;;;8.05;4.75;;;;;;;;;;5042318;28;20437;-62
2023/10/28 03:24:43;;;;;;;9.10;4.32;;;;;;;;;;5043880;28;20488;-62
2023/10/28 03:27:10;;;;;;;11.90;4.80;;;;;;;;;;5040821;28;20418;-61
2023/10/28 03:29:40;;;;;;;8.27;4.40;;;;;;;;;;5042398;28;20405;-62
2023/10/28 03:32:08;;;;;;;9.57;4.40;;;;;;;;;;5043703;28;20443;-62
2023/10/28 03:34:35;;;;;;;9.27;4.40;;;;;;;;;;5041700;28;20419;-62
2023/10/28 03:37:02;;;;;;;8.73;4.45;;;;;;;;;;5048733;28;20467;-62
2023/10/28 03:39:30;;;;;;;11.18;5.00;;;;;;;;;;5043406;28;20413;-61
2023/10/28 03:41:57;;;;;;;8.35;4.63;;;;;;;;;;5040917;28;20410;-62
2023/10/28 03:44:24;;;;;;;9.50;4.40;;;;;;;;;;5041966;28;20413;-62
2023/10/28 03:46:51;;;;;;;12.68;5.43;;;;;;;;;;5043317;28;20467;-62
2023/10/28 03:49:18;;;;;;;13.05;6.30;;;;;;;;;;5039526;28;20420;-62
2023/10/28 03:51:45;;;;;;;12.45;5.53;;;;;;;;;;5043014;28;20459;-62
2023/10/28 03:54:13;;;;;;;12.45;5.88;;;;;;;;;;5043402;28;21119;-62
2023/10/28 03:56:41;;;;;;;10.13;5.22;;;;;;;;;;5042380;28;20428;-62
2023/10/28 03:59:08;;;;;;;9.35;5.03;;;;;;;;;;5046538;28;20415;-62
2023/10/28 04:01:35;;;;;;;11.70;5.63;;;;;;;;;;5045751;28;20423;-62
2023/10/28 04:04:02;;;;;;;12.15;5.22;;;;;;;;;;5038235;28;20904;-63
2023/10/28 04:06:29;;;;;;;12.43;5.13;;;;;;;;;;5045266;28;20409;-63
2023/10/28 04:08:58;;;;;;;9.32;4.93;;;;;;;;;;5044082;28;20768;-64
2023/10/28 04:11:25;;;;;;;11.40;4.90;;;;;;;;;;5042262;28;20436;-63
2023/10/28 04:13:54;;;;;;;9.52;4.53;;;;;;;;;;5041744;28;20430;-63
2023/10/28 04:16:21;;;;;;;10.38;5.18;;;;;;;;;;5043754;28;20452;-63
2023/10/28 04:18:48;;;;;;;10.07;5.13;;;;;;;;;;5040540;28;20414;-62
2023/10/28 04:21:15;;;;;;;9.30;4.67;;;;;;;;;;5040946;28;20647;-63
2023/10/28 04:23:42;;;;;;;8.63;4.60;;;;;;;;;;5042646;28;20425;-62
2023/10/28 04:26:09;;;;;;;11.75;5.68;;;;;;;;;;5031439;28;20418;-62
2023/10/28 04:28:36;;;;;;;11.87;4.90;;;;;;;;;;5039039;28;20450;-63
2023/10/28 04:31:05;;;;;;;8.88;4.57;;;;;;;;;;5045188;28;20409;-62
2023/10/28 04:33:32;;;;;;;8.17;4.83;;;;;;;;;;5039871;28;20966;-63
2023/10/28 04:35:59;;;;;;;8.48;5.10;;;;;;;;;;5044916;28;20491;-63
2023/10/28 04:38:26;;;;;;;11.60;5.13;;;;;;;;;;5043810;28;20525;-63
2023/10/28 04:40:53;;;;;;;9.95;5.20;;;;;;;;;;5042086;28;20414;-62
2023/10/28 04:43:20;;;;;;;10.18;4.97;;;;;;;;;;5040788;28;20426;-63
2023/10/28 04:45:48;;;;;;;9.57;5.10;;;;;;;;;;5040062;28;20824;-62
2023/10/28 04:48:16;;;;;;;11.37;5.53;;;;;;;;;;5042273;28;20417;-63
2023/10/28 04:50:43;;;;;;;8.20;4.80;;;;;;;;;;5040570;28;20442;-64
2023/10/28 04:53:10;;;;;;;7.60;4.70;;;;;;;;;;5039726;28;20474;-63
2023/10/28 04:55:37;;;;;;;8.13;4.50;;;;;;;;;;5042281;28;20428;-64
2023/10/28 04:58:05;;;;;;;7.53;4.25;;;;;;;;;;5040336;28;20410;-63
2023/10/28 05:00:32;;;;;;;9.10;4.25;;;;;;;;;;5039633;28;20425;-63
2023/10/28 05:03:00;;;;;;;7.18;4.10;;;;;;;;;;5041585;28;20915;-64
2023/10/28 05:05:29;;;;;;;8.07;4.10;;;;;;;;;;5042115;28;20417;-64
2023/10/28 05:07:56;;;;;;;8.52;4.10;;;;;;;;;;5043529;28;20414;-63
2023/10/28 05:10:23;;;;;;;6.68;3.80;;;;;;;;;;5030732;28;20506;-63
2023/10/28 05:12:50;;;;;;;7.80;3.60;;;;;;;;;;5030616;28;20407;-63
2023/10/28 05:15:17;;;;;;;7.45;3.70;;;;;;;;;;5030108;28;20993;-63
2023/10/28 05:17:44;;;;;;;7.63;3.67;;;;;;;;;;5030352;28;20789;-63
2023/10/28 05:20:12;;;;;;;7.97;4.03;;;;;;;;;;5030662;28;20457;-64
2023/10/28 05:22:42;;;;;;;6.78;3.45;;;;;;;;;;5038076;28;20514;-64
2023/10/28 05:25:09;;;;;;;6.85;3.65;;;;;;;;;;5030330;28;20970;-64
2023/10/28 05:27:36;;;;;;;6.82;3.42;;;;;;;;;;5030220;28;20419;-64
2023/10/28 05:30:04;;;;;;;5.17;3.47;;;;;;;;;;5030270;28;20460;-63
2023/10/28 05:32:31;;;;;;;6.40;3.13;;;;;;;;;;5038801;28;20460;-64
2023/10/28 05:34:58;;;;;;;6.75;3.17;;;;;;;;;;5042835;28;20408;-63
2023/10/28 05:37:26;;;;;;;6.43;2.70;;;;;;;;;;5035054;28;20425;-63
2023/10/28 05:39:56;;;;;;;7.15;2.85;;;;;;;;;;5037167;28;20895;-64
2023/10/28 05:42:23;;;;;;;10.63;3.03;;;;;;;;;;5032153;28;20407;-63
2023/10/28 05:44:50;;;;;;;5.75;2.85;;;;;;;;;;5036521;28;20952;-63
2023/10/28 05:47:17;;;;;;;4.57;2.58;;;;;;;;;;5033322;28;20419;-63
2023/10/28 05:49:44;;;;;;;5.03;2.50;;;;;;;;;;5036466;28;20419;-64
2023/10/28 05:52:12;;;;;;;7.10;2.95;;;;;;;;;;5035175;28;20495;-64
2023/10/28 05:54:40;;;;;;;7.18;2.97;;;;;;;;;;5032926;28;20411;-63
2023/10/28 05:57:09;;;;;;;3.72;2.58;;;;;;;;;;5037136;28;20413;-63
2023/10/28 05:59:36;;;;;;;5.88;2.70;;;;;;;;;;5033256;28;20480;-63
2023/10/28 06:02:04;;;;;;;6.80;3.00;;;;;;;;;;5036521;28;20417;-63
2023/10/28 06:04:31;;;;;;;4.78;2.53;;;;;;;;;;5035144;28;20917;-63
2023/10/28 06:06:58;;;;;;;4.90;2.70;;;;;;;;;;5041749;28;20962;-62
2023/10/28 06:09:25;;;;;;;3.88;2.50;;;;;;;;;;5038856;28;20472;-63
2023/10/28 06:11:52;;;;;;;6.25;2.70;;;;;;;;;;5039692;28;20410;-63
2023/10/28 06:14:21;;;;;;;4.95;2.67;;;;;;;;;;5041573;28;20405;-64
2023/10/28 06:16:49;;;;;;;5.25;2.45;;;;;;;;;;5030220;28;20410;-63
2023/10/28 06:19:17;;;;;;;6.47;2.70;;;;;;;;;;5030100;28;20451;-64
2023/10/28 06:21:44;;;;;;;4.20;2.85;;;;;;;;;;5029947;28;20419;-63
2023/10/28 06:24:11;;;;;;;3.20;2.20;;;;;;;;;;5029887;28;20438;-64
2023/10/28 06:26:38;;;;;;;6.25;2.35;;;;;;;;;;5029974;28;20955;-63
2023/10/28 06:29:05;;;;;;;4.07;2.40;;;;;;;;;;5041126;28;20410;-64
2023/10/28 06:31:36;;;;;;;4.32;2.40;;;;;;;;;;5042245;28;20411;-62
2023/10/28 06:34:05;;;;;;;3.35;2.10;;;;;;;;;;5042791;28;20404;-64
2023/10/28 06:36:33;;;;;;;4.20;2.10;;;;;;;;;;5052015;28;20887;-64
2023/10/28 06:39:00;;;;;;;3.72;2.03;;;;;;;;;;5041182;28;20413;-64
2023/10/28 06:41:27;;;;;;;3.85;2.33;;;;;;;;;;5044130;28;20413;-65
2023/10/28 06:43:54;;;;;;;2.92;1.90;;;;;;;;;;5041826;28;20481;-65
2023/10/28 06:46:21;;;;;;;5.30;2.00;;;;;;;;;;5043733;28;20471;-64
2023/10/28 06:48:49;;;;;;;2.85;1.70;;;;;;;;;;5043639;28;20413;-65
2023/10/28 06:51:16;;;;;;;7.35;1.98;;;;;;;;;;5040691;28;20415;-64
2023/10/28 06:53:44;;;;;;;3.70;1.70;;;;;;;;;;5046099;28;20408;-65
2023/10/28 06:56:12;;;;;;;4.63;2.08;;;;;;;;;;5049806;28;20996;-65
2023/10/28 06:58:39;;;;;;;3.72;2.10;;;;;;;;;;5045783;28;20781;-67
2023/10/28 07:01:09;;;;;;;5.45;1.95;;;;;;;;;;5048317;28;20422;-65
2023/10/28 07:03:37;;;;;;;3.78;1.65;;;;;;;;;;5044114;28;20426;-64
2023/10/28 07:06:07;;;;;;;4.47;1.83;;;;;;;;;;5044380;28;20484;-64
2023/10/28 07:08:36;;;;;;;3.22;1.52;;;;;;;;;;5045538;28;20419;-65
2023/10/28 07:11:03;;;;;;;4.30;1.80;;;;;;;;;;5045028;28;20413;-64
2023/10/28 07:13:30;;;;;;;2.22;1.60;;;;;;;;;;5046466;28;20515;-64
2023/10/28 07:16:06;;;;;;;4.53;1.80;;;;;;;;;;5044285;28;20410;-61
2023/10/28 07:18:33;;;;;;;3.10;1.98;;;;;;;;;;5032709;28;20419;-63
2023/10/28 07:21:01;;;;;;;3.45;1.75;;;;;;;;;;5038129;28;20432;-63
2023/10/28 07:23:31;;;;;;;4.97;1.80;;;;;;;;;;5045584;28;20516;-63
2023/10/28 07:25:59;;;;;;;4.65;1.83;;;;;;;;;;5044636;28;20429;-65
2023/10/28 07:28:27;;;;;;;3.85;1.80;;;;;;;;;;5042394;28;20829;-65
2023/10/28 07:30:54;;;;;;;1.73;1.33;;;;;;;;;;5040472;28;20514;-65
2023/10/28 07:33:22;;;;;;;3.72;1.50;;;;;;;;;;5038518;28;20407;-64
2023/10/28 07:35:50;;;;;;;4.80;1.67;;;;;;;;;;5043497;28;20411;-62
2023/10/28 07:38:17;;;;;;;2.78;1.35;;;;;;;;;;5043379;28;20410;-64
2023/10/28 07:40:46;;;;;;;4.37;1.70;;;;;;;;;;5045433;28;20508;-67
2023/10/28 07:43:13;;;;;;;3.17;1.33;;;;;;;;;;5047321;28;20414;-64
2023/10/28 07:45:40;;;;;;;1.98;1.23;;;;;;;;;;5038890;28;20427;-66
2023/10/28 07:48:07;;;;;;;3.75;1.48;;;;;;;;;;5037936;28;20479;-66
2023/10/28 07:50:34;;;;;;;3.03;1.27;;;;;;;;;;5038825;28;20906;-66
2023/10/28 07:53:01;;;;;;;2.20;1.10;;;;;;;;;;5041335;28;20417;-65
2023/10/28 07:55:29;;;;;;;5.22;1.60;;;;;;;;;;5036134;28;20410;-66
2023/10/28 07:57:57;;;;;;;2.63;1.20;;;;;;;;;;5038260;28;20463;-66
2023/10/28 08:00:26;;;;;;;2.42;1.00;;;;;;;;;;5037395;28;20418;-64
2023/10/28 08:02:53;;;;;;;2.97;1.27;;;;;;;;;;5034533;28;20415;-64
2023/10/28 08:05:20;;;;;;;2.72;1.10;;;;;;;;;;5043138;28;20429;-63
2023/10/28 08:07:47;;;;;;;1.98;1.02;;;;;;;;;;5044884;28;20814;-64
2023/10/28 08:10:16;;;;;;;2.00;1.10;;;;;;;;;;5040759;28;20419;-64
2023/10/28 08:12:44;;;;;;;3.10;1.08;;;;;;;;;;5040130;28;20419;-64
2023/10/28 08:15:12;;;;;;;3.40;1.23;;;;;;;;;;5042921;28;20409;-64
2023/10/28 08:17:41;;;;;;;2.25;1.02;;;;;;;;;;5038906;28;20414;-64
2023/10/28 08:20:08;;;;;;;1.73;1.00;;;;;;;;;;5046528;28;20417;-65
2023/10/28 08:22:36;;;;;;;2.50;1.30;;;;;;;;;;5031228;28;20878;-64
2023/10/28 08:25:04;;;;;;;1.75;1.00;;;;;;;;;;5030994;28;20426;-64
2023/10/28 08:27:32;;;;;;;4.82;1.00;;;;;;;;;;5031379;28;20422;-63
2023/10/28 08:30:01;;;;;;;1.50;1.00;;;;;;;;;;5031258;28;20443;-63
2023/10/28 08:32:31;;;;;;;1.60;0.82;;;;;;;;;;5030960;28;20410;-64
2023/10/28 08:34:58;;;;;;;2.13;0.80;;;;;;;;;;5039627;28;20780;-64
2023/10/28 08:37:25;;;;;;;2.45;1.00;;;;;;;;;;5044415;28;20415;-63
2023/10/28 08:39:53;;;;;;;2.53;1.00;;;;;;;;;;5040709;28;20493;-64
2023/10/28 08:42:20;;;;;;;3.08;1.05;;;;;;;;;;5038997;28;20506;-64
2023/10/28 08:44:47;;;;;;;2.33;0.90;;;;;;;;;;5043224;28;20427;-64
2023/10/28 08:47:14;;;;;;;2.03;1.00;;;;;;;;;;5039957;28;20929;-63
2023/10/28 08:49:45;;;;;;;3.63;1.30;;;;;;;;;;5042083;28;20417;-66
2023/10/28 08:52:15;;;;;;;1.60;1.00;;;;;;;;;;5040078;28;20415;-64
2023/10/28 08:54:43;;;;;;;2.67;1.10;;;;;;;;;;5040043;28;20415;-64
2023/10/28 08:57:11;;;;;;;3.55;1.30;;;;;;;;;;5039646;28;20429;-63
2023/10/28 08:59:38;;;;;;;3.00;1.10;;;;;;;;;;5040698;28;20495;-65
2023/10/28 09:02:08;;;;;;;3.53;1.00;;;;;;;;;;5038080;28;20415;-65
2023/10/28 09:04:35;;;;;;;3.42;1.10;;;;;;;;;;5039724;28;20426;-64
2023/10/28 09:07:04;;;;;;;3.17;1.20;;;;;;;;;;5047306;28;20409;-65
2023/10/28 09:09:32;;;;;;;3.10;1.30;;;;;;;;;;5041818;28;20417;-65
2023/10/28 09:12:00;;;;;;;2.10;1.00;;;;;;;;;;5039774;28;20411;-66
2023/10/28 09:14:27;;;;;;;2.10;1.25;;;;;;;;;;5039914;28;20469;-65
2023/10/28 09:16:55;;;;;;;2.45;0.90;;;;;;;;;;5038642;28;20862;-66
2023/10/28 09:19:23;;;;;;;3.25;1.05;;;;;;;;;;5040560;28;20448;-66
2023/10/28 09:21:50;;;;;;;2.60;1.20;;;;;;;;;;5044902;28;20424;-65
2023/10/28 09:24:19;;;;;;;2.88;0.80;;;;;;;;;;5038789;28;20484;-65
2023/10/28 09:26:46;;;;;;;3.17;1.07;;;;;;;;;;5040826;28;20772;-65
2023/10/28 09:29:23;;;;;;;1.80;0.90;;;;;;;;;;5037294;28;20420;-65
2023/10/28 09:31:51;;;;;;;2.97;1.00;;;;;;;;;;5029038;28;20415;-65
2023/10/28 09:34:18;;;;;;;2.00;0.90;;;;;;;;;;5030521;28;20408;-66
2023/10/28 09:36:45;;;;;;;1.52;0.88;;;;;;;;;;5046782;28;20409;-65
2023/10/28 09:39:13;;;;;;;3.63;1.15;;;;;;;;;;5043727;28;20834;-65
2023/10/28 09:41:42;;;;;;;1.50;1.00;;;;;;;;;;5040822;28;20504;-66
2023/10/28 09:44:10;;;;;;;1.50;0.90;;;;;;;;;;5037904;28;20488;-65
2023/10/28 09:46:37;;;;;;;2.80;1.00;;;;;;;;;;5037748;28;20421;-65
2023/10/28 09:49:07;;;;;;;1.90;0.90;;;;;;;;;;5037874;28;20411;-65
2023/10/28 09:51:34;;;;;;;3.95;1.00;;;;;;;;;;5038900;28;20407;-64
2023/10/28 09:54:08;;;;;;;2.70;0.80;;;;;;;;;;5040758;28;20413;-65
2023/10/28 09:56:36;;;;;;;1.85;0.80;;;;;;;;;;5043794;28;20412;-65
2023/10/28 09:59:08;;;;;;;2.25;0.90;;;;;;;;;;5038408;28;20415;-66
2023/10/28 10:01:37;;;;;;;2.00;1.00;;;;;;;;;;5045537;28;20406;-67
2023/10/28 10:04:07;;;;;;;2.05;0.77;;;;;;;;;;5039491;28;20485;-67
2023/10/28 10:06:34;;;;;;;3.45;0.88;;;;;;;;;;5048387;28;20797;-66
2023/10/28 10:09:02;;;;;;;1.65;1.02;;;;;;;;;;5041407;28;20415;-65
2023/10/28 10:11:29;;;;;;;2.05;0.88;;;;;;;;;;5042785;28;20417;-66
2023/10/28 10:13:56;;;;;;;2.25;0.93;;;;;;;;;;5043921;28;20891;-66
2023/10/28 10:16:32;;;;;;;1.80;1.00;;;;;;;;;;5041632;28;20422;-65
2023/10/28 10:19:00;;;;;;;2.15;0.90;;;;;;;;;;5042311;28;20494;-67
2023/10/28 10:21:33;;;;;;;2.08;1.00;;;;;;;;;;5044162;28;20413;-64
2023/10/28 10:24:04;;;;;;;2.53;0.90;;;;;;;;;;5042684;28;20449;-65
2023/10/28 10:26:32;;;;;;;3.20;0.80;;;;;;;;;;5040900;28;20420;-65
2023/10/28 10:29:00;;;;;;;1.48;0.90;;;;;;;;;;5042928;28;20501;-64
2023/10/28 10:31:31;;;;;;;3.40;1.70;;;;;;;;;;5041737;28;20414;-63
2023/10/28 10:34:04;;;;;;;2.72;0.90;;;;;;;;;;5041377;28;20494;-63
2023/10/28 10:36:35;;;;;;;1.90;0.82;;;;;;;;;;5045425;28;20453;-63
2023/10/28 10:39:14;;;;;;;1.90;1.00;;;;;;;;;;5040732;28;20637;-63
2023/10/28 10:41:42;;;;;;;2.93;1.00;;;;;;;;;;5040922;28;20775;-63
2023/10/28 10:44:21;;;;;;;3.10;1.20;;;;;;;;;;5047006;28;20495;-63
2023/10/28 10:46:50;;;;;;;2.60;1.03;;;;;;;;;;5043578;28;20783;-64
2023/10/28 10:49:17;;;;;;;2.42;1.05;;;;;;;;;;5042428;28;20435;-63
2023/10/28 10:51:45;;;;;;;2.57;1.00;;;;;;;;;;5043316;28;20477;-65
2023/10/28 10:54:11;;;;;;;4.00;0.90;;;;;;;;;;5040724;28;20486;-64
2023/10/28 10:56:38;;;;;;;2.60;0.90;;;;;;;;;;5042758;28;21181;-64
2023/10/28 10:59:06;;;;;;;3.35;1.10;;;;;;;;;;5042994;28;20417;-63
2023/10/28 11:01:33;;;;;;;2.60;1.00;;;;;;;;;;5039772;28;20456;-63
2023/10/28 11:04:03;;;;;;;2.15;1.13;;;;;;;;;;5042186;28;20417;-63
2023/10/28 11:06:30;;;;;;;2.90;0.82;;;;;;;;;;5046276;28;20524;-63
2023/10/28 11:08:57;;;;;;;2.42;1.00;;;;;;;;;;5042693;28;20416;-63
2023/10/28 11:11:25;;;;;;;1.88;0.70;;;;;;;;;;5041655;28;20895;-63
2023/10/28 11:13:52;;;;;;;2.60;0.80;;;;;;;;;;5040165;28;20893;-64
2023/10/28 11:16:21;;;;;;;2.75;1.10;;;;;;;;;;5043633;28;20471;-63
2023/10/28 11:18:48;;;;;;;2.92;1.00;;;;;;;;;;5041510;28;20455;-63
2023/10/28 11:21:18;;;;;;;3.67;0.93;;;;;;;;;;5040499;28;20501;-63
2023/10/28 11:23:46;;;;;;;3.50;1.00;;;;;;;;;;5031296;28;20547;-63
2023/10/28 11:26:18;;;;;;;3.08;0.90;;;;;;;;;;5031184;28;20457;-63
2023/10/28 11:28:45;;;;;;;3.15;1.10;;;;;;;;;;5031763;28;21030;-63
2023/10/28 11:31:12;;;;;;;4.15;1.08;;;;;;;;;;5031417;28;20445;-63
2023/10/28 11:33:40;;;;;;;3.20;1.10;;;;;;;;;;5031306;28;20414;-63
2023/10/28 11:36:08;;;;;;;3.10;1.02;;;;;;;;;;5046270;28;20409;-64
2023/10/28 11:38:36;;;;;;;2.53;0.90;;;;;;;;;;5042570;28;20419;-63
2023/10/28 11:41:04;;;;;;;3.10;1.30;;;;;;;;;;5040339;28;21088;-63
2023/10/28 11:43:31;;;;;;;2.87;1.10;;;;;;;;;;5046311;28;20511;-63
2023/10/28 11:45:58;;;;;;;4.53;1.15;;;;;;;;;;5044440;28;20542;-64
2023/10/28 11:48:26;;;;;;;4.00;1.17;;;;;;;;;;5040472;28;20450;-63
2023/10/28 11:50:53;;;;;;;3.42;1.08;;;;;;;;;;5042794;28;20417;-63
2023/10/28 11:53:23;;;;;;;3.20;1.20;;;;;;;;;;5040415;28;20458;-63
2023/10/28 11:55:52;;;;;;;3.08;1.20;;;;;;;;;;5039716;28;20494;-63
2023/10/28 11:58:19;;;;;;;3.78;1.27;;;;;;;;;;5036086;28;20456;-64
2023/10/28 12:00:50;;;;;;;6.72;2.17;;;;;;;;;;5042441;28;20440;-65
2023/10/28 12:03:17;;;;;;;2.70;1.13;;;;;;;;;;5046722;28;20458;-64
2023/10/28 12:05:44;;;;;;;6.18;1.63;;;;;;;;;;5043982;28;21066;-64
2023/10/28 12:08:11;;;;;;;3.90;1.35;;;;;;;;;;5043000;28;20434;-62
2023/10/28 12:10:43;;;;;;;4.83;1.50;;;;;;;;;;5042362;28;20893;-64
2023/10/28 12:13:11;;;;;;;4.13;1.45;;;;;;;;;;5040521;28;20595;-63
2023/10/28 12:15:38;;;;;;;6.30;1.70;;;;;;;;;;5039437;28;20448;-64
2023/10/28 12:18:05;;;;;;;4.97;1.90;;;;;;;;;;5041971;28;20410;-63
2023/10/28 12:20:32;;;;;;;6.43;1.58;;;;;;;;;;5040272;28;20407;-64
2023/10/28 12:23:01;;;;;;;7.90;2.28;;;;;;;;;;5038959;28;21290;-63
2023/10/28 12:25:28;;;;;;;5.93;1.70;;;;;;;;;;5038019;28;20435;-63
2023/10/28 12:27:55;;;;;;;7.38;1.83;;;;;;;;;;5040391;28;20410;-63
2023/10/28 12:30:24;;;;;;;7.57;1.88;;;;;;;;;;5041522;28;20529;-64
2023/10/28 12:32:51;;;;;;;7.40;2.20;;;;;;;;;;5038118;28;20426;-62
2023/10/28 12:35:19;;;;;;;6.28;1.90;;;;;;;;;;5044380;28;20401;-63
2023/10/28 12:37:46;;;;;;;6.38;1.95;;;;;;;;;;5042647;28;20413;-63
2023/10/28 12:40:13;;;;;;;7.80;2.00;;;;;;;;;;5039124;28;20419;-64
2023/10/28 12:42:40;;;;;;;7.75;2.28;;;;;;;;;;5040352;28;20895;-62
2023/10/28 12:45:09;;;;;;;6.82;1.88;;;;;;;;;;5040289;28;20911;-64
2023/10/28 12:47:37;;;;;;;8.10;2.15;;;;;;;;;;5035350;28;20506;-63
2023/10/28 12:50:04;;;;;;;7.10;2.10;;;;;;;;;;5037222;28;20535;-63
2023/10/28 12:52:32;;;;;;;8.30;1.90;;;;;;;;;;5043203;28;20462;-63
2023/10/28 12:55:01;;;;;;;9.65;2.00;;;;;;;;;;5044302;28;20412;-63
2023/10/28 12:57:28;;;;;;;7.00;1.90;;;;;;;;;;5039523;28;20413;-63
2023/10/28 12:59:55;;;;;;;6.18;1.90;;;;;;;;;;5041269;28;20427;-64
2023/10/28 13:02:22;;;;;;;8.07;1.92;;;;;;;;;;5041431;28;20421;-66
2023/10/28 13:04:51;;;;;;;8.32;2.10;;;;;;;;;;5044682;28;20431;-65
2023/10/28 13:07:20;;;;;;;9.30;2.03;;;;;;;;;;5043484;28;20432;-65
2023/10/28 13:09:47;;;;;;;6.20;1.93;;;;;;;;;;5034481;28;20520;-65
2023/10/28 13:12:14;;;;;;;8.00;1.90;;;;;;;;;;5034693;28;20512;-65
2023/10/28 13:14:41;;;;;;;7.10;1.83;;;;;;;;;;5034264;28;20552;-67
2023/10/28 13:17:09;;;;;;;8.55;2.08;;;;;;;;;;5041205;28;20818;-63
2023/10/28 13:19:36;;;;;;;8.32;2.17;;;;;;;;;;5035670;28;20462;-64
2023/10/28 13:22:04;;;;;;;6.22;2.00;;;;;;;;;;5042821;28;20937;-64
2023/10/28 13:24:31;;;;;;;9.85;2.10;;;;;;;;;;5042437;28;20413;-61
2023/10/28 13:26:59;;;;;;;5.75;1.85;;;;;;;;;;5038240;28;20523;-63
2023/10/28 13:29:27;;;;;;;6.47;1.90;;;;;;;;;;5047676;28;20715;-64
2023/10/28 13:31:54;;;;;;;7.90;2.28;;;;;;;;;;5038635;28;20452;-67
2023/10/28 13:34:23;;;;;;;5.95;1.65;;;;;;;;;;5042573;28;20421;-70
2023/10/28 13:36:50;;;;;;;6.57;1.88;;;;;;;;;;5044456;28;20930;-67
2023/10/28 13:39:19;;;;;;;5.90;1.65;;;;;;;;;;5048082;28;20424;-68
2023/10/28 13:41:46;;;;;;;6.43;1.90;;;;;;;;;;5049582;28;20452;-67
2023/10/28 13:44:15;;;;;;;7.05;1.77;;;;;;;;;;5052643;28;20497;-68
2023/10/28 13:46:43;;;;;;;7.55;1.65;;;;;;;;;;5047650;28;20468;-65
2023/10/28 13:49:09;;;;;;;7.28;1.73;;;;;;;;;;5042246;28;20430;-66
2023/10/28 13:51:37;;;;;;;5.50;1.55;;;;;;;;;;5044352;28;20823;-66
2023/10/28 13:54:04;;;;;;;6.53;1.70;;;;;;;;;;5042781;28;20418;-66
2023/10/28 13:56:32;;;;;;;5.40;1.80;;;;;;;;;;5042100;28;20840;-66
2023/10/28 13:58:59;;;;;;;3.85;1.58;;;;;;;;;;5044521;28;20450;-67
2023/10/28 14:01:26;;;;;;;5.60;1.75;;;;;;;;;;5042783;28;20441;-66
2023/10/28 14:03:53;;;;;;;6.85;1.80;;;;;;;;;;5042410;28;20438;-67
2023/10/28 14:06:21;;;;;;;5.85;1.85;;;;;;;;;;5051075;28;20552;-68
2023/10/28 14:08:48;;;;;;;5.65;1.90;;;;;;;;;;5046875;28;20534;-67
2023/10/28 14:11:15;;;;;;;6.47;1.83;;;;;;;;;;5046056;28;20627;-67
2023/10/28 14:13:45;;;;;;;5.80;1.98;;;;;;;;;;5045986;28;20441;-67
2023/10/28 14:16:16;;;;;;;7.50;2.08;;;;;;;;;;5038637;28;20472;-68
2023/10/28 14:18:45;;;;;;;7.13;2.35;;;;;;;;;;5042333;28;20477;-67
2023/10/28 14:21:12;;;;;;;9.05;2.35;;;;;;;;;;5033443;28;20414;-68
2023/10/28 14:23:39;;;;;;;7.73;2.50;;;;;;;;;;5032907;28;20506;-68
2023/10/28 14:26:06;;;;;;;6.85;2.30;;;;;;;;;;5032499;28;20427;-67
2023/10/28 14:28:34;;;;;;;8.47;2.50;;;;;;;;;;5032712;28;20908;-67
2023/10/28 14:31:02;;;;;;;8.13;2.58;;;;;;;;;;5037456;28;20478;-67
2023/10/28 14:33:29;;;;;;;5.78;2.30;;;;;;;;;;5051886;28;20454;-68
2023/10/28 14:35:56;;;;;;;5.47;2.08;;;;;;;;;;5046120;28;20415;-68
2023/10/28 14:38:24;;;;;;;6.57;2.17;;;;;;;;;;5043849;28;20413;-67
2023/10/28 14:40:51;;;;;;;6.55;2.40;;;;;;;;;;5041393;28;20456;-67
2023/10/28 14:43:18;;;;;;;5.97;2.05;;;;;;;;;;5040756;28;20429;-67